sensor_id;sensor_type;location;lat;lon;timestamp;P1;durP1;ratioP1;P2;durP2;ratioP2
31482;SDS011;18103;52.246;8.052;2023-01-25T00:01:12;15.20;;;7.87;;
31482;SDS011;18103;52.246;8.052;2023-01-25T00:03:37;14.90;;;7.47;;
31482;SDS011;18103;52.246;8.052;2023-01-25T00:06:03;23.70;;;9.90;;
31482;SDS011;18103;52.246;8.052;2023-01-25T00:08:28;17.60;;;9.33;;
31482;SDS011;18103;52.246;8.052;2023-01-25T00:10:54;19.43;;;8.50;;
31482;SDS011;18103;52.246;8.052;2023-01-25T00:13:19;13.13;;;6.93;;
31482;SDS011;18103;52.246;8.052;2023-01-25T00:15:45;15.17;;;8.03;;
31482;SDS011;18103;52.246;8.052;2023-01-25T00:18:10;16.43;;;8.37;;
31482;SDS011;18103;52.246;8.052;2023-01-25T00:20:35;16.60;;;8.73;;
31482;SDS011;18103;52.246;8.052;2023-01-25T00:23:01;23.63;;;9.50;;
31482;SDS011;18103;52.246;8.052;2023-01-25T00:25:26;17.77;;;9.03;;
31482;SDS011;18103;52.246;8.052;2023-01-25T00:27:51;17.23;;;9.43;;
31482;SDS011;18103;52.246;8.052;2023-01-25T00:30:17;20.10;;;9.50;;
31482;SDS011;18103;52.246;8.052;2023-01-25T00:32:46;19.83;;;9.97;;
31482;SDS011;18103;52.246;8.052;2023-01-25T00:35:12;11.23;;;7.05;;
31482;SDS011;18103;52.246;8.052;2023-01-25T00:37:38;18.57;;;9.63;;
31482;SDS011;18103;52.246;8.052;2023-01-25T00:40:08;21.42;;;9.30;;
31482;SDS011;18103;52.246;8.052;2023-01-25T00:42:35;18.17;;;9.33;;
31482;SDS011;18103;52.246;8.052;2023-01-25T00:45:00;17.20;;;8.90;;
31482;SDS011;18103;52.246;8.052;2023-01-25T00:47:26;18.70;;;8.77;;
31482;SDS011;18103;52.246;8.052;2023-01-25T00:49:51;16.43;;;8.67;;
31482;SDS011;18103;52.246;8.052;2023-01-25T00:52:16;17.93;;;8.23;;
31482;SDS011;18103;52.246;8.052;2023-01-25T00:54:42;18.80;;;9.40;;
31482;SDS011;18103;52.246;8.052;2023-01-25T00:57:07;23.43;;;10.97;;
31482;SDS011;18103;52.246;8.052;2023-01-25T00:59:33;20.47;;;8.80;;
31482;SDS011;18103;52.246;8.052;2023-01-25T01:01:59;21.57;;;9.90;;
31482;SDS011;18103;52.246;8.052;2023-01-25T01:04:25;19.30;;;9.60;;
31482;SDS011;18103;52.246;8.052;2023-01-25T01:06:51;22.87;;;10.23;;
31482;SDS011;18103;52.246;8.052;2023-01-25T01:09:18;18.00;;;8.63;;
31482;SDS011;18103;52.246;8.052;2023-01-25T01:11:44;15.48;;;8.15;;
31482;SDS011;18103;52.246;8.052;2023-01-25T01:14:09;16.30;;;8.73;;
31482;SDS011;18103;52.246;8.052;2023-01-25T01:16:35;19.17;;;9.13;;
31482;SDS011;18103;52.246;8.052;2023-01-25T01:19:00;17.43;;;8.60;;
31482;SDS011;18103;52.246;8.052;2023-01-25T01:21:26;17.23;;;8.57;;
31482;SDS011;18103;52.246;8.052;2023-01-25T01:23:52;19.00;;;10.10;;
31482;SDS011;18103;52.246;8.052;2023-01-25T01:26:18;20.53;;;8.90;;
31482;SDS011;18103;52.246;8.052;2023-01-25T01:28:44;19.17;;;9.83;;
31482;SDS011;18103;52.246;8.052;2023-01-25T01:31:11;15.20;;;8.20;;
31482;SDS011;18103;52.246;8.052;2023-01-25T01:33:38;15.68;;;8.05;;
31482;SDS011;18103;52.246;8.052;2023-01-25T01:36:14;17.03;;;9.63;;
31482;SDS011;18103;52.246;8.052;2023-01-25T01:38:40;19.70;;;9.43;;
31482;SDS011;18103;52.246;8.052;2023-01-25T01:41:06;15.20;;;7.17;;
31482;SDS011;18103;52.246;8.052;2023-01-25T01:43:33;15.60;;;7.85;;
31482;SDS011;18103;52.246;8.052;2023-01-25T01:46:00;11.23;;;6.97;;
31482;SDS011;18103;52.246;8.052;2023-01-25T01:51:03;21.15;;;9.07;;
31482;SDS011;18103;52.246;8.052;2023-01-25T01:53:42;14.93;;;7.33;;
31482;SDS011;18103;52.246;8.052;2023-01-25T01:56:12;15.73;;;7.10;;
31482;SDS011;18103;52.246;8.052;2023-01-25T01:58:42;21.25;;;9.05;;
31482;SDS011;18103;52.246;8.052;2023-01-25T02:01:09;24.27;;;9.50;;
31482;SDS011;18103;52.246;8.052;2023-01-25T02:03:35;11.35;;;5.38;;
31482;SDS011;18103;52.246;8.052;2023-01-25T02:06:02;15.23;;;8.13;;
31482;SDS011;18103;52.246;8.052;2023-01-25T02:08:33;13.82;;;7.63;;
31482;SDS011;18103;52.246;8.052;2023-01-25T02:11:05;14.77;;;7.18;;
31482;SDS011;18103;52.246;8.052;2023-01-25T02:13:32;16.77;;;7.43;;
31482;SDS011;18103;52.246;8.052;2023-01-25T02:15:59;12.35;;;6.97;;
31482;SDS011;18103;52.246;8.052;2023-01-25T02:18:25;17.87;;;9.07;;
31482;SDS011;18103;52.246;8.052;2023-01-25T02:20:51;17.43;;;7.93;;
31482;SDS011;18103;52.246;8.052;2023-01-25T02:26:12;15.35;;;7.95;;
31482;SDS011;18103;52.246;8.052;2023-01-25T02:28:40;15.38;;;6.47;;
31482;SDS011;18103;52.246;8.052;2023-01-25T02:31:11;15.18;;;8.40;;
31482;SDS011;18103;52.246;8.052;2023-01-25T02:33:36;15.90;;;7.97;;
31482;SDS011;18103;52.246;8.052;2023-01-25T02:38:34;18.00;;;8.00;;
31482;SDS011;18103;52.246;8.052;2023-01-25T02:41:02;16.00;;;8.18;;
31482;SDS011;18103;52.246;8.052;2023-01-25T02:43:39;15.68;;;8.15;;
31482;SDS011;18103;52.246;8.052;2023-01-25T02:46:27;15.00;;;7.07;;
31482;SDS011;18103;52.246;8.052;2023-01-25T02:48:56;16.88;;;7.00;;
31482;SDS011;18103;52.246;8.052;2023-01-25T02:51:23;13.63;;;8.02;;
31482;SDS011;18103;52.246;8.052;2023-01-25T02:53:50;19.75;;;8.45;;
31482;SDS011;18103;52.246;8.052;2023-01-25T02:56:16;14.27;;;7.72;;
31482;SDS011;18103;52.246;8.052;2023-01-25T02:58:42;13.15;;;7.28;;
31482;SDS011;18103;52.246;8.052;2023-01-25T03:01:08;15.97;;;7.47;;
31482;SDS011;18103;52.246;8.052;2023-01-25T03:03:34;15.30;;;6.27;;
31482;SDS011;18103;52.246;8.052;2023-01-25T03:05:59;16.47;;;8.00;;
31482;SDS011;18103;52.246;8.052;2023-01-25T03:08:24;12.00;;;5.60;;
31482;SDS011;18103;52.246;8.052;2023-01-25T03:10:50;9.77;;;5.33;;
31482;SDS011;18103;52.246;8.052;2023-01-25T03:13:15;13.50;;;7.70;;
31482;SDS011;18103;52.246;8.052;2023-01-25T03:15:40;17.87;;;7.80;;
31482;SDS011;18103;52.246;8.052;2023-01-25T03:18:06;12.93;;;6.30;;
31482;SDS011;18103;52.246;8.052;2023-01-25T03:20:31;11.03;;;4.83;;
31482;SDS011;18103;52.246;8.052;2023-01-25T03:22:57;18.10;;;7.10;;
31482;SDS011;18103;52.246;8.052;2023-01-25T03:25:22;11.17;;;6.63;;
31482;SDS011;18103;52.246;8.052;2023-01-25T03:27:48;13.17;;;7.30;;
31482;SDS011;18103;52.246;8.052;2023-01-25T03:30:13;10.47;;;5.10;;
31482;SDS011;18103;52.246;8.052;2023-01-25T03:32:39;14.33;;;6.30;;
31482;SDS011;18103;52.246;8.052;2023-01-25T03:35:04;12.47;;;6.43;;
31482;SDS011;18103;52.246;8.052;2023-01-25T03:37:30;20.27;;;8.53;;
31482;SDS011;18103;52.246;8.052;2023-01-25T03:39:55;16.30;;;8.03;;
31482;SDS011;18103;52.246;8.052;2023-01-25T03:42:22;15.60;;;7.55;;
31482;SDS011;18103;52.246;8.052;2023-01-25T03:44:47;16.27;;;7.80;;
31482;SDS011;18103;52.246;8.052;2023-01-25T03:47:13;14.53;;;7.67;;
31482;SDS011;18103;52.246;8.052;2023-01-25T03:49:38;24.33;;;8.33;;
31482;SDS011;18103;52.246;8.052;2023-01-25T03:52:04;13.60;;;7.10;;
31482;SDS011;18103;52.246;8.052;2023-01-25T03:54:30;20.30;;;8.13;;
31482;SDS011;18103;52.246;8.052;2023-01-25T03:56:55;11.17;;;6.50;;
31482;SDS011;18103;52.246;8.052;2023-01-25T03:59:21;14.97;;;7.37;;
31482;SDS011;18103;52.246;8.052;2023-01-25T04:01:46;13.80;;;7.57;;
31482;SDS011;18103;52.246;8.052;2023-01-25T04:04:12;16.33;;;7.67;;
31482;SDS011;18103;52.246;8.052;2023-01-25T04:06:37;17.83;;;8.07;;
31482;SDS011;18103;52.246;8.052;2023-01-25T04:09:03;16.97;;;8.03;;
31482;SDS011;18103;52.246;8.052;2023-01-25T04:11:28;23.23;;;9.77;;
31482;SDS011;18103;52.246;8.052;2023-01-25T04:13:53;21.03;;;9.30;;
31482;SDS011;18103;52.246;8.052;2023-01-25T04:16:19;15.90;;;8.67;;
31482;SDS011;18103;52.246;8.052;2023-01-25T04:18:44;18.47;;;9.10;;
31482;SDS011;18103;52.246;8.052;2023-01-25T04:21:09;18.27;;;8.97;;
31482;SDS011;18103;52.246;8.052;2023-01-25T04:23:35;22.83;;;9.73;;
31482;SDS011;18103;52.246;8.052;2023-01-25T04:26:02;22.90;;;10.87;;
31482;SDS011;18103;52.246;8.052;2023-01-25T04:28:30;22.75;;;9.63;;
31482;SDS011;18103;52.246;8.052;2023-01-25T04:30:56;20.23;;;8.93;;
31482;SDS011;18103;52.246;8.052;2023-01-25T04:33:22;23.47;;;10.90;;
31482;SDS011;18103;52.246;8.052;2023-01-25T04:35:48;20.10;;;9.77;;
31482;SDS011;18103;52.246;8.052;2023-01-25T04:38:13;24.07;;;9.67;;
31482;SDS011;18103;52.246;8.052;2023-01-25T04:40:39;21.17;;;10.03;;
31482;SDS011;18103;52.246;8.052;2023-01-25T04:43:05;19.77;;;9.05;;
31482;SDS011;18103;52.246;8.052;2023-01-25T04:45:31;17.77;;;9.43;;
31482;SDS011;18103;52.246;8.052;2023-01-25T04:47:59;21.90;;;10.73;;
31482;SDS011;18103;52.246;8.052;2023-01-25T04:50:26;24.65;;;11.15;;
31482;SDS011;18103;52.246;8.052;2023-01-25T04:52:52;17.80;;;8.70;;
31482;SDS011;18103;52.246;8.052;2023-01-25T04:55:18;16.17;;;8.87;;
31482;SDS011;18103;52.246;8.052;2023-01-25T04:57:43;23.63;;;9.47;;
31482;SDS011;18103;52.246;8.052;2023-01-25T05:00:09;30.37;;;12.33;;
31482;SDS011;18103;52.246;8.052;2023-01-25T05:02:35;21.17;;;10.60;;
31482;SDS011;18103;52.246;8.052;2023-01-25T05:05:01;26.63;;;9.60;;
31482;SDS011;18103;52.246;8.052;2023-01-25T05:07:27;25.90;;;10.13;;
31482;SDS011;18103;52.246;8.052;2023-01-25T05:09:52;29.03;;;11.90;;
31482;SDS011;18103;52.246;8.052;2023-01-25T05:12:18;29.33;;;11.73;;
31482;SDS011;18103;52.246;8.052;2023-01-25T05:14:43;20.20;;;10.00;;
31482;SDS011;18103;52.246;8.052;2023-01-25T05:17:08;23.40;;;10.50;;
31482;SDS011;18103;52.246;8.052;2023-01-25T05:19:34;26.83;;;10.57;;
31482;SDS011;18103;52.246;8.052;2023-01-25T05:22:00;25.07;;;10.73;;
31482;SDS011;18103;52.246;8.052;2023-01-25T05:24:30;26.65;;;11.75;;
31482;SDS011;18103;52.246;8.052;2023-01-25T05:26:57;36.88;;;12.63;;
31482;SDS011;18103;52.246;8.052;2023-01-25T05:29:26;25.92;;;11.95;;
31482;SDS011;18103;52.246;8.052;2023-01-25T05:31:52;26.33;;;11.52;;
31482;SDS011;18103;52.246;8.052;2023-01-25T05:34:17;28.53;;;12.83;;
31482;SDS011;18103;52.246;8.052;2023-01-25T05:36:43;34.40;;;12.90;;
31482;SDS011;18103;52.246;8.052;2023-01-25T05:39:08;32.17;;;12.30;;
31482;SDS011;18103;52.246;8.052;2023-01-25T05:41:34;28.20;;;11.93;;
31482;SDS011;18103;52.246;8.052;2023-01-25T05:43:59;33.67;;;12.03;;
31482;SDS011;18103;52.246;8.052;2023-01-25T05:46:27;35.57;;;13.37;;
31482;SDS011;18103;52.246;8.052;2023-01-25T05:48:53;28.27;;;11.68;;
31482;SDS011;18103;52.246;8.052;2023-01-25T05:51:18;29.67;;;11.40;;
31482;SDS011;18103;52.246;8.052;2023-01-25T05:53:44;31.03;;;11.30;;
31482;SDS011;18103;52.246;8.052;2023-01-25T05:56:09;38.27;;;13.80;;
31482;SDS011;18103;52.246;8.052;2023-01-25T05:58:35;36.87;;;14.40;;
31482;SDS011;18103;52.246;8.052;2023-01-25T06:01:01;25.13;;;11.65;;
31482;SDS011;18103;52.246;8.052;2023-01-25T06:03:28;26.13;;;13.32;;
31482;SDS011;18103;52.246;8.052;2023-01-25T06:05:54;34.23;;;12.53;;
31482;SDS011;18103;52.246;8.052;2023-01-25T06:08:20;28.08;;;11.73;;
31482;SDS011;18103;52.246;8.052;2023-01-25T06:10:45;38.27;;;12.67;;
31482;SDS011;18103;52.246;8.052;2023-01-25T06:13:11;26.37;;;11.93;;
31482;SDS011;18103;52.246;8.052;2023-01-25T06:15:36;28.70;;;11.63;;
31482;SDS011;18103;52.246;8.052;2023-01-25T06:18:02;32.03;;;12.50;;
31482;SDS011;18103;52.246;8.052;2023-01-25T06:20:27;28.27;;;13.47;;
31482;SDS011;18103;52.246;8.052;2023-01-25T06:22:53;35.73;;;11.60;;
31482;SDS011;18103;52.246;8.052;2023-01-25T06:25:18;39.63;;;13.67;;
31482;SDS011;18103;52.246;8.052;2023-01-25T06:27:43;30.33;;;13.30;;
31482;SDS011;18103;52.246;8.052;2023-01-25T06:30:09;38.30;;;14.00;;
31482;SDS011;18103;52.246;8.052;2023-01-25T06:32:35;32.70;;;13.07;;
31482;SDS011;18103;52.246;8.052;2023-01-25T06:35:00;34.13;;;13.40;;
31482;SDS011;18103;52.246;8.052;2023-01-25T06:37:26;34.37;;;13.47;;
31482;SDS011;18103;52.246;8.052;2023-01-25T06:39:51;38.50;;;14.17;;
31482;SDS011;18103;52.246;8.052;2023-01-25T06:42:18;37.40;;;13.48;;
31482;SDS011;18103;52.246;8.052;2023-01-25T06:44:44;30.13;;;13.97;;
31482;SDS011;18103;52.246;8.052;2023-01-25T06:47:09;33.00;;;12.60;;
31482;SDS011;18103;52.246;8.052;2023-01-25T06:49:36;38.83;;;14.45;;
31482;SDS011;18103;52.246;8.052;2023-01-25T06:52:01;36.50;;;15.43;;
31482;SDS011;18103;52.246;8.052;2023-01-25T06:54:27;33.30;;;15.03;;
31482;SDS011;18103;52.246;8.052;2023-01-25T06:56:52;32.23;;;15.03;;
31482;SDS011;18103;52.246;8.052;2023-01-25T06:59:18;34.33;;;12.57;;
31482;SDS011;18103;52.246;8.052;2023-01-25T07:01:43;35.73;;;13.43;;
31482;SDS011;18103;52.246;8.052;2023-01-25T07:04:09;35.60;;;14.30;;
31482;SDS011;18103;52.246;8.052;2023-01-25T07:06:38;35.70;;;14.73;;
31482;SDS011;18103;52.246;8.052;2023-01-25T07:09:04;36.97;;;13.83;;
31482;SDS011;18103;52.246;8.052;2023-01-25T07:11:31;42.08;;;14.00;;
31482;SDS011;18103;52.246;8.052;2023-01-25T07:13:57;34.23;;;12.27;;
31482;SDS011;18103;52.246;8.052;2023-01-25T07:16:22;33.53;;;13.67;;
31482;SDS011;18103;52.246;8.052;2023-01-25T07:18:48;41.70;;;16.67;;
31482;SDS011;18103;52.246;8.052;2023-01-25T07:21:14;31.33;;;13.40;;
31482;SDS011;18103;52.246;8.052;2023-01-25T07:23:42;38.97;;;14.90;;
31482;SDS011;18103;52.246;8.052;2023-01-25T07:26:21;37.13;;;14.70;;
31482;SDS011;18103;52.246;8.052;2023-01-25T07:28:47;34.63;;;14.15;;
31482;SDS011;18103;52.246;8.052;2023-01-25T07:31:14;38.10;;;14.35;;
31482;SDS011;18103;52.246;8.052;2023-01-25T07:33:41;51.07;;;15.70;;
31482;SDS011;18103;52.246;8.052;2023-01-25T07:36:07;38.17;;;12.90;;
31482;SDS011;18103;52.246;8.052;2023-01-25T07:38:34;40.47;;;15.10;;
31482;SDS011;18103;52.246;8.052;2023-01-25T07:41:00;32.80;;;13.52;;
31482;SDS011;18103;52.246;8.052;2023-01-25T07:43:26;33.58;;;13.05;;
31482;SDS011;18103;52.246;8.052;2023-01-25T07:45:52;32.87;;;13.10;;
31482;SDS011;18103;52.246;8.052;2023-01-25T07:48:18;39.83;;;15.65;;
31482;SDS011;18103;52.246;8.052;2023-01-25T07:50:45;34.50;;;14.25;;
31482;SDS011;18103;52.246;8.052;2023-01-25T07:53:13;44.10;;;16.27;;
31482;SDS011;18103;52.246;8.052;2023-01-25T07:55:39;37.95;;;15.43;;
31482;SDS011;18103;52.246;8.052;2023-01-25T07:58:05;35.67;;;13.23;;
31482;SDS011;18103;52.246;8.052;2023-01-25T08:00:30;37.90;;;13.13;;
31482;SDS011;18103;52.246;8.052;2023-01-25T08:02:55;41.47;;;16.57;;
31482;SDS011;18103;52.246;8.052;2023-01-25T08:05:21;36.70;;;14.67;;
31482;SDS011;18103;52.246;8.052;2023-01-25T08:07:46;50.40;;;18.27;;
31482;SDS011;18103;52.246;8.052;2023-01-25T08:10:12;38.40;;;13.97;;
31482;SDS011;18103;52.246;8.052;2023-01-25T08:12:38;38.23;;;15.20;;
31482;SDS011;18103;52.246;8.052;2023-01-25T08:15:03;39.30;;;14.13;;
31482;SDS011;18103;52.246;8.052;2023-01-25T08:17:29;35.23;;;15.27;;
31482;SDS011;18103;52.246;8.052;2023-01-25T08:19:58;32.80;;;14.00;;
31482;SDS011;18103;52.246;8.052;2023-01-25T08:22:25;38.58;;;14.68;;
31482;SDS011;18103;52.246;8.052;2023-01-25T08:24:51;45.50;;;15.52;;
31482;SDS011;18103;52.246;8.052;2023-01-25T08:27:17;47.13;;;15.83;;
31482;SDS011;18103;52.246;8.052;2023-01-25T08:29:42;39.20;;;15.53;;
31482;SDS011;18103;52.246;8.052;2023-01-25T08:32:07;41.80;;;15.97;;
31482;SDS011;18103;52.246;8.052;2023-01-25T08:34:33;38.07;;;15.27;;
31482;SDS011;18103;52.246;8.052;2023-01-25T08:36:59;38.90;;;14.57;;
31482;SDS011;18103;52.246;8.052;2023-01-25T08:39:24;38.23;;;14.77;;
31482;SDS011;18103;52.246;8.052;2023-01-25T08:41:50;37.10;;;14.60;;
31482;SDS011;18103;52.246;8.052;2023-01-25T08:44:15;27.83;;;11.50;;
31482;SDS011;18103;52.246;8.052;2023-01-25T08:46:40;34.90;;;13.63;;
31482;SDS011;18103;52.246;8.052;2023-01-25T08:49:06;36.93;;;13.63;;
31482;SDS011;18103;52.246;8.052;2023-01-25T08:51:34;39.28;;;14.50;;
31482;SDS011;18103;52.246;8.052;2023-01-25T08:54:06;37.57;;;14.60;;
31482;SDS011;18103;52.246;8.052;2023-01-25T08:56:32;35.03;;;13.93;;
31482;SDS011;18103;52.246;8.052;2023-01-25T08:59:00;32.63;;;13.32;;
31482;SDS011;18103;52.246;8.052;2023-01-25T09:01:26;37.87;;;14.97;;
31482;SDS011;18103;52.246;8.052;2023-01-25T09:03:52;40.17;;;15.33;;
31482;SDS011;18103;52.246;8.052;2023-01-25T09:06:18;37.53;;;14.93;;
31482;SDS011;18103;52.246;8.052;2023-01-25T09:08:44;35.78;;;14.48;;
31482;SDS011;18103;52.246;8.052;2023-01-25T09:11:11;31.90;;;12.07;;
31482;SDS011;18103;52.246;8.052;2023-01-25T09:13:38;30.05;;;13.02;;
31482;SDS011;18103;52.246;8.052;2023-01-25T09:16:07;42.28;;;15.73;;
31482;SDS011;18103;52.246;8.052;2023-01-25T09:18:35;38.97;;;12.82;;
31482;SDS011;18103;52.246;8.052;2023-01-25T09:21:05;35.17;;;13.85;;
31482;SDS011;18103;52.246;8.052;2023-01-25T09:23:32;34.42;;;13.57;;
31482;SDS011;18103;52.246;8.052;2023-01-25T09:25:58;35.80;;;14.67;;
31482;SDS011;18103;52.246;8.052;2023-01-25T09:28:25;43.45;;;16.02;;
31482;SDS011;18103;52.246;8.052;2023-01-25T09:30:57;32.22;;;11.73;;
31482;SDS011;18103;52.246;8.052;2023-01-25T09:33:28;37.45;;;14.38;;
31482;SDS011;18103;52.246;8.052;2023-01-25T09:35:55;35.55;;;13.93;;
31482;SDS011;18103;52.246;8.052;2023-01-25T09:38:21;32.37;;;13.27;;
31482;SDS011;18103;52.246;8.052;2023-01-25T09:46:27;31.80;;;13.93;;
31482;SDS011;18103;52.246;8.052;2023-01-25T09:51:58;33.78;;;12.55;;
31482;SDS011;18103;52.246;8.052;2023-01-25T09:54:36;25.95;;;11.45;;
31482;SDS011;18103;52.246;8.052;2023-01-25T09:57:08;25.35;;;11.68;;
31482;SDS011;18103;52.246;8.052;2023-01-25T09:59:51;33.70;;;12.65;;
31482;SDS011;18103;52.246;8.052;2023-01-25T10:02:26;28.90;;;12.48;;
31482;SDS011;18103;52.246;8.052;2023-01-25T10:04:56;26.23;;;10.50;;
31482;SDS011;18103;52.246;8.052;2023-01-25T10:07:49;31.27;;;12.57;;
31482;SDS011;18103;52.246;8.052;2023-01-25T10:10:41;26.45;;;11.23;;
31482;SDS011;18103;52.246;8.052;2023-01-25T10:13:11;30.85;;;11.52;;
31482;SDS011;18103;52.246;8.052;2023-01-25T10:15:40;29.85;;;12.75;;
31482;SDS011;18103;52.246;8.052;2023-01-25T10:21:06;31.23;;;11.65;;
31482;SDS011;18103;52.246;8.052;2023-01-25T10:26:18;36.95;;;12.30;;
31482;SDS011;18103;52.246;8.052;2023-01-25T10:31:46;26.45;;;11.93;;
31482;SDS011;18103;52.246;8.052;2023-01-25T10:36:45;22.30;;;10.75;;
31482;SDS011;18103;52.246;8.052;2023-01-25T10:39:15;27.05;;;11.98;;
31482;SDS011;18103;52.246;8.052;2023-01-25T10:41:43;30.27;;;12.52;;
31482;SDS011;18103;52.246;8.052;2023-01-25T10:44:13;20.75;;;10.20;;
31482;SDS011;18103;52.246;8.052;2023-01-25T10:46:52;29.42;;;11.57;;
31482;SDS011;18103;52.246;8.052;2023-01-25T10:52:15;27.27;;;13.38;;
31482;SDS011;18103;52.246;8.052;2023-01-25T10:54:46;28.08;;;10.95;;
31482;SDS011;18103;52.246;8.052;2023-01-25T10:57:18;23.40;;;11.15;;
31482;SDS011;18103;52.246;8.052;2023-01-25T10:59:45;30.33;;;11.82;;
31482;SDS011;18103;52.246;8.052;2023-01-25T11:02:34;21.02;;;9.93;;
31482;SDS011;18103;52.246;8.052;2023-01-25T11:07:52;27.88;;;10.43;;
31482;SDS011;18103;52.246;8.052;2023-01-25T11:10:28;27.90;;;11.30;;
31482;SDS011;18103;52.246;8.052;2023-01-25T11:16:25;21.70;;;9.43;;
31482;SDS011;18103;52.246;8.052;2023-01-25T11:18:51;26.02;;;11.35;;
31482;SDS011;18103;52.246;8.052;2023-01-25T11:21:20;25.23;;;10.27;;
31482;SDS011;18103;52.246;8.052;2023-01-25T11:24:03;31.95;;;12.23;;
31482;SDS011;18103;52.246;8.052;2023-01-25T11:26:36;29.05;;;11.18;;
31482;SDS011;18103;52.246;8.052;2023-01-25T11:29:15;31.80;;;10.75;;
31482;SDS011;18103;52.246;8.052;2023-01-25T11:31:44;23.27;;;11.48;;
31482;SDS011;18103;52.246;8.052;2023-01-25T11:34:13;29.70;;;11.40;;
31482;SDS011;18103;52.246;8.052;2023-01-25T11:45:06;27.92;;;10.13;;
31482;SDS011;18103;52.246;8.052;2023-01-25T12:23:06;31.42;;;10.18;;
31482;SDS011;18103;52.246;8.052;2023-01-25T12:29:02;22.92;;;8.85;;
31482;SDS011;18103;52.246;8.052;2023-01-25T12:34:13;33.55;;;12.27;;
31482;SDS011;18103;52.246;8.052;2023-01-25T12:36:45;37.55;;;13.30;;
31482;SDS011;18103;52.246;8.052;2023-01-25T12:41:46;27.08;;;13.70;;
31482;SDS011;18103;52.246;8.052;2023-01-25T12:44:18;36.67;;;13.60;;
31482;SDS011;18103;52.246;8.052;2023-01-25T12:52:05;28.17;;;11.55;;
31482;SDS011;18103;52.246;8.052;2023-01-25T12:54:46;34.40;;;13.63;;
31482;SDS011;18103;52.246;8.052;2023-01-25T12:57:23;31.63;;;13.73;;
31482;SDS011;18103;52.246;8.052;2023-01-25T13:00:05;24.15;;;10.90;;
31482;SDS011;18103;52.246;8.052;2023-01-25T13:02:49;30.63;;;13.20;;
31482;SDS011;18103;52.246;8.052;2023-01-25T13:08:05;36.53;;;15.13;;
31482;SDS011;18103;52.246;8.052;2023-01-25T13:10:48;35.90;;;15.82;;
31482;SDS011;18103;52.246;8.052;2023-01-25T13:13:24;27.38;;;12.65;;
31482;SDS011;18103;52.246;8.052;2023-01-25T13:15:52;37.75;;;15.55;;
31482;SDS011;18103;52.246;8.052;2023-01-25T13:20:56;34.95;;;13.93;;
31482;SDS011;18103;52.246;8.052;2023-01-25T13:23:33;39.10;;;13.77;;
31482;SDS011;18103;52.246;8.052;2023-01-25T13:28:45;33.25;;;12.52;;
31482;SDS011;18103;52.246;8.052;2023-01-25T13:34:01;33.33;;;13.52;;
31482;SDS011;18103;52.246;8.052;2023-01-25T13:39:51;25.98;;;11.77;;
31482;SDS011;18103;52.246;8.052;2023-01-25T13:42:01;39.72;;;14.52;;
31482;SDS011;18103;52.246;8.052;2023-01-25T13:44:46;36.22;;;13.68;;
31482;SDS011;18103;52.246;8.052;2023-01-25T13:47:18;35.83;;;14.73;;
31482;SDS011;18103;52.246;8.052;2023-01-25T13:49:51;35.75;;;13.65;;
31482;SDS011;18103;52.246;8.052;2023-01-25T13:52:22;32.95;;;14.30;;
31482;SDS011;18103;52.246;8.052;2023-01-25T13:54:48;32.50;;;14.02;;
31482;SDS011;18103;52.246;8.052;2023-01-25T13:57:19;35.97;;;13.48;;
31482;SDS011;18103;52.246;8.052;2023-01-25T13:59:47;45.67;;;16.27;;
31482;SDS011;18103;52.246;8.052;2023-01-25T14:02:13;34.77;;;13.63;;
31482;SDS011;18103;52.246;8.052;2023-01-25T14:04:47;32.22;;;12.88;;
31482;SDS011;18103;52.246;8.052;2023-01-25T14:07:17;39.22;;;14.32;;
31482;SDS011;18103;52.246;8.052;2023-01-25T14:09:49;37.67;;;13.80;;
31482;SDS011;18103;52.246;8.052;2023-01-25T14:12:29;38.65;;;14.68;;
31482;SDS011;18103;52.246;8.052;2023-01-25T14:18:02;43.20;;;16.50;;
31482;SDS011;18103;52.246;8.052;2023-01-25T14:20:35;32.33;;;13.25;;
31482;SDS011;18103;52.246;8.052;2023-01-25T14:23:01;40.00;;;14.00;;
31482;SDS011;18103;52.246;8.052;2023-01-25T14:25:27;37.35;;;14.80;;
31482;SDS011;18103;52.246;8.052;2023-01-25T14:27:58;37.03;;;15.10;;
31482;SDS011;18103;52.246;8.052;2023-01-25T14:30:25;43.05;;;15.32;;
31482;SDS011;18103;52.246;8.052;2023-01-25T14:32:53;32.08;;;13.30;;
31482;SDS011;18103;52.246;8.052;2023-01-25T14:35:30;41.85;;;15.48;;
31482;SDS011;18103;52.246;8.052;2023-01-25T14:37:57;34.47;;;14.52;;
31482;SDS011;18103;52.246;8.052;2023-01-25T14:40:24;36.28;;;12.80;;
31482;SDS011;18103;52.246;8.052;2023-01-25T14:42:52;38.47;;;13.57;;
31482;SDS011;18103;52.246;8.052;2023-01-25T14:45:19;38.22;;;15.50;;
31482;SDS011;18103;52.246;8.052;2023-01-25T14:47:48;40.90;;;15.07;;
31482;SDS011;18103;52.246;8.052;2023-01-25T14:55:32;39.05;;;12.07;;
31482;SDS011;18103;52.246;8.052;2023-01-25T14:58:00;25.30;;;11.25;;
31482;SDS011;18103;52.246;8.052;2023-01-25T15:00:29;49.25;;;16.38;;
31482;SDS011;18103;52.246;8.052;2023-01-25T15:03:00;39.35;;;14.65;;
31482;SDS011;18103;52.246;8.052;2023-01-25T15:05:29;37.58;;;14.77;;
31482;SDS011;18103;52.246;8.052;2023-01-25T15:10:33;40.95;;;15.13;;
31482;SDS011;18103;52.246;8.052;2023-01-25T15:15:32;33.97;;;14.40;;
31482;SDS011;18103;52.246;8.052;2023-01-25T15:17:59;36.72;;;14.10;;
31482;SDS011;18103;52.246;8.052;2023-01-25T15:20:36;39.17;;;14.40;;
31482;SDS011;18103;52.246;8.052;2023-01-25T15:23:18;39.35;;;15.18;;
31482;SDS011;18103;52.246;8.052;2023-01-25T15:25:56;40.63;;;13.73;;
31482;SDS011;18103;52.246;8.052;2023-01-25T15:28:23;44.80;;;15.15;;
31482;SDS011;18103;52.246;8.052;2023-01-25T15:30:50;43.92;;;14.98;;
31482;SDS011;18103;52.246;8.052;2023-01-25T15:33:26;39.83;;;13.97;;
31482;SDS011;18103;52.246;8.052;2023-01-25T15:35:53;33.83;;;14.77;;
31482;SDS011;18103;52.246;8.052;2023-01-25T15:38:19;34.77;;;14.00;;
31482;SDS011;18103;52.246;8.052;2023-01-25T15:40:46;31.65;;;11.50;;
31482;SDS011;18103;52.246;8.052;2023-01-25T15:43:12;41.35;;;15.00;;
31482;SDS011;18103;52.246;8.052;2023-01-25T15:45:39;37.70;;;14.52;;
31482;SDS011;18103;52.246;8.052;2023-01-25T15:48:11;31.65;;;13.00;;
31482;SDS011;18103;52.246;8.052;2023-01-25T15:50:39;34.28;;;14.07;;
31482;SDS011;18103;52.246;8.052;2023-01-25T15:53:04;29.43;;;10.53;;
31482;SDS011;18103;52.246;8.052;2023-01-25T15:55:30;41.80;;;15.63;;
31482;SDS011;18103;52.246;8.052;2023-01-25T15:57:56;43.65;;;17.02;;
31482;SDS011;18103;52.246;8.052;2023-01-25T16:00:23;42.78;;;14.88;;
31482;SDS011;18103;52.246;8.052;2023-01-25T16:02:49;38.43;;;13.87;;
31482;SDS011;18103;52.246;8.052;2023-01-25T16:05:14;36.20;;;15.17;;
31482;SDS011;18103;52.246;8.052;2023-01-25T16:07:40;32.80;;;13.67;;
31482;SDS011;18103;52.246;8.052;2023-01-25T16:10:18;30.42;;;13.48;;
31482;SDS011;18103;52.246;8.052;2023-01-25T16:12:48;42.15;;;15.52;;
31482;SDS011;18103;52.246;8.052;2023-01-25T16:15:14;39.15;;;15.05;;
31482;SDS011;18103;52.246;8.052;2023-01-25T16:17:40;41.33;;;15.40;;
31482;SDS011;18103;52.246;8.052;2023-01-25T16:20:05;55.07;;;18.43;;
31482;SDS011;18103;52.246;8.052;2023-01-25T16:22:32;38.70;;;16.17;;
31482;SDS011;18103;52.246;8.052;2023-01-25T16:24:58;49.57;;;18.17;;
31482;SDS011;18103;52.246;8.052;2023-01-25T16:27:25;43.50;;;15.43;;
31482;SDS011;18103;52.246;8.052;2023-01-25T16:29:59;49.33;;;16.92;;
31482;SDS011;18103;52.246;8.052;2023-01-25T16:32:25;55.38;;;18.02;;